createdAt,value
2022-10-11T00:00:06.421Z,11.30
2022-10-11T00:02:32.851Z,11.34
2022-10-11T00:04:59.276Z,11.19
2022-10-11T00:07:25.858Z,11.39
2022-10-11T00:09:52.323Z,11.10
2022-10-11T00:12:18.726Z,11.05
2022-10-11T00:14:45.139Z,11.08
2022-10-11T00:17:11.609Z,11.20
2022-10-11T00:19:38.019Z,11.09
2022-10-11T00:22:04.493Z,11.11
2022-10-11T00:24:30.973Z,11.04
2022-10-11T00:26:57.377Z,11.15
2022-10-11T00:29:23.813Z,11.21
2022-10-11T00:31:50.328Z,11.02
2022-10-11T00:34:18.089Z,11.01
2022-10-11T00:36:45.822Z,11.01
2022-10-11T00:39:14.391Z,11.13
2022-10-11T00:41:41.529Z,11.24
2022-10-11T00:44:09.231Z,11.23
2022-10-11T00:46:35.698Z,11.13
2022-10-11T00:49:20.877Z,11.11
2022-10-11T00:51:56.997Z,10.98
2022-10-11T00:54:25.870Z,11.09
2022-10-11T00:56:58.609Z,11.13
2022-10-11T00:59:28.051Z,11.17
2022-10-11T01:01:55.222Z,11.19
2022-10-11T01:04:21.826Z,11.25
2022-10-11T01:06:48.886Z,11.07
2022-10-11T01:09:15.788Z,11.10
2022-10-11T01:11:43.349Z,11.02
2022-10-11T01:14:09.736Z,11.11
2022-10-11T01:16:54.851Z,11.17
2022-10-11T01:19:40.193Z,11.30
2022-10-11T01:22:18.869Z,11.37
2022-10-11T01:24:57.590Z,11.29
2022-10-11T01:27:42.456Z,11.34
2022-10-11T01:30:18.209Z,11.30
2022-10-11T01:32:59.613Z,11.31
2022-10-11T01:35:38.241Z,11.34
2022-10-11T01:38:11.369Z,11.08
2022-10-11T01:40:42.270Z,11.06
2022-10-11T01:43:10.034Z,11.20
2022-10-11T01:45:37.222Z,11.07
2022-10-11T01:48:08.066Z,10.95
2022-10-11T01:50:54.843Z,11.16
2022-10-11T01:53:45.213Z,11.19
2022-10-11T01:56:17.647Z,11.05
2022-10-11T01:58:59.422Z,11.15
2022-10-11T02:01:44.232Z,11.27
2022-10-11T02:04:31.115Z,11.07
2022-10-11T02:07:00.761Z,11.09
2022-10-11T02:09:33.607Z,11.21
2022-10-11T02:12:03.609Z,11.32
2022-10-11T02:14:32.658Z,11.42
2022-10-11T02:17:07.321Z,11.67
2022-10-11T02:19:42.626Z,11.44
2022-10-11T02:22:12.938Z,11.58
2022-10-11T02:24:41.444Z,11.52
2022-10-11T02:27:09.528Z,11.55
2022-10-11T02:29:39.556Z,11.54
2022-10-11T02:32:07.082Z,11.59
2022-10-11T02:34:35.809Z,11.67
2022-10-11T02:37:02.218Z,11.74
2022-10-11T02:39:31.809Z,11.56
2022-10-11T02:42:01.242Z,11.58
2022-10-11T02:44:32.185Z,11.61
2022-10-11T02:47:00.144Z,11.62
2022-10-11T02:49:27.637Z,11.59
2022-10-11T02:51:57.768Z,11.75
2022-10-11T02:54:25.313Z,11.80
2022-10-11T02:56:51.790Z,11.86
2022-10-11T02:59:18.693Z,11.78
2022-10-11T03:01:45.204Z,11.68
2022-10-11T03:04:11.904Z,11.70
2022-10-11T03:06:38.353Z,11.74
2022-10-11T03:09:04.781Z,11.61
2022-10-11T03:11:31.296Z,11.53
2022-10-11T03:13:57.732Z,11.49
2022-10-11T03:16:24.189Z,11.27
2022-10-11T03:18:50.637Z,11.33
2022-10-11T03:21:17.083Z,11.29
2022-10-11T03:23:43.570Z,11.43
2022-10-11T03:26:10.017Z,11.48
2022-10-11T03:28:36.520Z,11.65
2022-10-11T03:31:03.093Z,11.77
2022-10-11T03:33:29.523Z,11.77
2022-10-11T03:35:55.926Z,11.70
2022-10-11T03:38:22.679Z,11.46
2022-10-11T03:40:49.118Z,11.56
2022-10-11T03:43:16.173Z,11.40
2022-10-11T03:45:42.689Z,11.40
2022-10-11T03:48:09.971Z,11.54
2022-10-11T03:50:37.094Z,11.36
2022-10-11T03:53:04.149Z,11.44
2022-10-11T03:55:30.558Z,11.50
2022-10-11T03:57:57.022Z,11.68
2022-10-11T04:00:23.458Z,11.70
2022-10-11T04:02:49.893Z,11.72
2022-10-11T04:05:16.429Z,11.58
2022-10-11T04:07:43.136Z,11.61
2022-10-11T04:10:09.638Z,11.59
2022-10-11T04:12:37.510Z,11.51
2022-10-11T04:15:04.857Z,11.79
2022-10-11T04:17:31.257Z,11.86
2022-10-11T04:19:57.832Z,11.64
2022-10-11T04:22:24.387Z,11.45
2022-10-11T04:24:50.869Z,11.57
2022-10-11T04:27:17.421Z,11.49
2022-10-11T04:29:43.861Z,11.65
2022-10-11T04:32:10.284Z,11.77
2022-10-11T04:34:36.718Z,11.74
2022-10-11T04:37:03.199Z,11.84
2022-10-11T04:39:29.646Z,11.70
2022-10-11T04:41:56.054Z,11.74
2022-10-11T04:44:22.515Z,11.76
2022-10-11T04:46:48.918Z,11.75
2022-10-11T04:49:15.326Z,11.87
2022-10-11T04:51:41.747Z,11.84
2022-10-11T04:54:08.195Z,11.74
2022-10-11T04:56:34.662Z,11.62
2022-10-11T04:59:01.150Z,11.85
2022-10-11T05:01:27.570Z,11.74
2022-10-11T05:03:54.058Z,11.77
2022-10-11T05:06:20.537Z,11.91
2022-10-11T05:08:47.029Z,11.90
2022-10-11T05:11:16.143Z,11.95
2022-10-11T05:13:43.383Z,11.83
2022-10-11T05:16:11.361Z,11.83
2022-10-11T05:18:38.964Z,11.80
2022-10-11T05:21:06.806Z,11.96
2022-10-11T05:23:34.332Z,11.93
2022-10-11T05:26:00.754Z,11.98
2022-10-11T05:28:27.305Z,12.08
2022-10-11T05:30:54.002Z,12.10
2022-10-11T05:33:20.502Z,12.07
2022-10-11T05:35:47.026Z,12.13
2022-10-11T05:38:13.577Z,12.16
2022-10-11T05:40:40.327Z,11.95
2022-10-11T05:43:06.806Z,12.21
2022-10-11T05:45:35.611Z,12.37
2022-10-11T05:48:02.072Z,12.38
2022-10-11T05:50:28.497Z,12.31
2022-10-11T05:52:55.519Z,12.47
2022-10-11T05:55:21.970Z,12.50
2022-10-11T05:57:48.414Z,12.41
2022-10-11T06:00:15.232Z,12.43
2022-10-11T06:02:41.683Z,12.29
2022-10-11T06:05:08.295Z,12.33
2022-10-11T06:07:35.802Z,12.56
2022-10-11T06:10:02.357Z,12.51
2022-10-11T06:12:29.307Z,12.67
2022-10-11T06:14:55.751Z,12.65
2022-10-11T06:17:23.766Z,12.70
2022-10-11T06:19:50.507Z,12.69
2022-10-11T06:22:17.136Z,12.83
2022-10-11T06:24:43.921Z,12.64
2022-10-11T06:27:10.755Z,12.59
2022-10-11T06:29:37.191Z,12.63
2022-10-11T06:32:03.741Z,12.63
2022-10-11T06:34:30.201Z,12.72
2022-10-11T06:36:56.674Z,12.78
2022-10-11T06:39:23.101Z,12.95
2022-10-11T06:41:49.545Z,12.95
2022-10-11T06:44:16.720Z,13.22
2022-10-11T06:46:43.241Z,12.98
2022-10-11T06:49:09.674Z,13.36
2022-10-11T06:51:36.261Z,13.57
2022-10-11T06:54:03.537Z,13.87
2022-10-11T06:56:31.186Z,13.81
2022-10-11T06:58:58.800Z,13.94
2022-10-11T07:01:25.857Z,14.19
2022-10-11T07:03:53.393Z,14.52
2022-10-11T07:06:21.202Z,14.94
2022-10-11T07:08:47.862Z,15.13
2022-10-11T07:11:19.277Z,15.04
2022-10-11T07:13:52.017Z,14.96
2022-10-11T07:16:18.997Z,15.46
2022-10-11T07:18:46.108Z,15.12
2022-10-11T07:21:13.583Z,15.85
2022-10-11T07:23:40.459Z,16.38
2022-10-11T07:26:08.501Z,16.81
2022-10-11T07:28:36.008Z,17.63
2022-10-11T07:31:07.313Z,18.74
2022-10-11T07:33:33.933Z,18.57
2022-10-11T07:36:00.657Z,18.59
2022-10-11T07:38:27.638Z,19.56
2022-10-11T07:40:54.175Z,19.29
2022-10-11T07:43:20.574Z,19.89
2022-10-11T07:45:48.772Z,19.83
2022-10-11T07:48:15.440Z,19.27
2022-10-11T07:50:41.840Z,20.05
2022-10-11T07:53:08.275Z,19.65
2022-10-11T07:55:40.021Z,20.27
2022-10-11T07:58:07.543Z,19.59
2022-10-11T08:00:34.047Z,20.06
2022-10-11T08:03:04.144Z,19.61
2022-10-11T08:05:30.804Z,19.14
2022-10-11T08:07:58.160Z,19.47
2022-10-11T08:10:25.358Z,19.53
2022-10-11T08:12:52.044Z,19.60
2022-10-11T08:15:18.521Z,19.35
2022-10-11T08:17:44.997Z,20.02
2022-10-11T08:20:11.507Z,19.12
2022-10-11T08:22:37.902Z,19.17
2022-10-11T08:25:04.722Z,18.99
2022-10-11T08:27:31.183Z,19.14
2022-10-11T08:29:57.651Z,18.84
2022-10-11T08:32:24.121Z,19.05
2022-10-11T08:34:50.540Z,19.53
2022-10-11T08:37:16.971Z,18.66
2022-10-11T08:39:43.411Z,19.00
2022-10-11T08:42:30.929Z,18.96
2022-10-11T08:45:15.687Z,18.81
2022-10-11T08:47:45.067Z,19.11
2022-10-11T08:50:17.084Z,18.53
2022-10-11T08:52:48.517Z,18.58
2022-10-11T08:55:21.295Z,18.96
2022-10-11T08:57:50.674Z,18.57
2022-10-11T09:00:18.993Z,18.50
2022-10-11T09:03:09.323Z,18.85
2022-10-11T09:05:39.701Z,19.36
2022-10-11T09:08:14.713Z,19.47
2022-10-11T09:10:59.565Z,19.73
2022-10-11T09:13:31.452Z,19.37
2022-10-11T09:16:16.556Z,19.33
2022-10-11T09:19:01.946Z,18.86
2022-10-11T09:21:28.325Z,18.63
2022-10-11T09:24:04.283Z,19.11
2022-10-11T09:26:37.413Z,19.11
2022-10-11T09:29:15.196Z,19.26
2022-10-11T09:31:46.075Z,19.22
2022-10-11T09:34:13.825Z,19.28
2022-10-11T09:36:55.482Z,19.42
2022-10-11T09:39:30.098Z,19.49
2022-10-11T09:41:58.921Z,19.30
2022-10-11T09:44:30.341Z,18.89
2022-10-11T09:46:57.255Z,19.35
2022-10-11T09:49:42.590Z,19.55
2022-10-11T09:52:16.588Z,19.31
2022-10-11T09:54:47.307Z,19.53
2022-10-11T09:57:37.185Z,19.69
2022-10-11T10:00:18.912Z,20.78
2022-10-11T10:02:49.312Z,20.38
2022-10-11T10:05:17.781Z,21.17
2022-10-11T10:08:04.900Z,21.62
2022-10-11T10:10:42.701Z,22.24
2022-10-11T10:13:21.097Z,22.80
2022-10-11T10:15:48.983Z,22.35
2022-10-11T10:18:20.739Z,22.37
2022-10-11T10:20:51.504Z,22.82
2022-10-11T10:23:26.177Z,22.96
2022-10-11T10:26:09.195Z,23.59
2022-10-11T10:28:35.869Z,23.00
2022-10-11T10:31:02.395Z,22.00
2022-10-11T10:33:34.399Z,22.83
2022-10-11T10:36:05.458Z,23.09
2022-10-11T10:38:34.248Z,23.30
2022-10-11T10:41:09.898Z,22.54
2022-10-11T10:43:38.102Z,22.85
2022-10-11T10:46:19.536Z,22.70
2022-10-11T10:52:13.046Z,22.06
2022-10-11T10:54:45.477Z,21.34
2022-10-11T10:57:23.241Z,21.62
2022-10-11T11:00:08.664Z,22.37
2022-10-11T11:02:41.764Z,22.89
2022-10-11T11:05:18.754Z,23.12
2022-10-11T11:08:02.278Z,23.40
2022-10-11T11:10:33.814Z,24.41
2022-10-11T11:13:00.269Z,24.23
2022-10-11T11:15:32.010Z,23.66
2022-10-11T11:17:59.458Z,22.79
2022-10-11T11:20:29.071Z,23.77
2022-10-11T11:23:08.152Z,23.95
2022-10-11T11:25:41.355Z,23.59
2022-10-11T11:28:21.524Z,23.70
2022-10-11T11:30:57.357Z,23.43
2022-10-11T11:33:26.580Z,23.35
2022-10-11T11:35:54.353Z,24.54
2022-10-11T11:38:20.893Z,24.44
2022-10-11T11:40:58.037Z,24.09
2022-10-11T11:43:24.497Z,24.80
2022-10-11T11:45:56.566Z,24.03
2022-10-11T11:48:26.802Z,24.47
2022-10-11T11:50:56.226Z,24.51
2022-10-11T11:53:28.850Z,24.42
2022-10-11T11:55:55.298Z,24.00
2022-10-11T11:58:21.697Z,24.11
2022-10-11T12:00:48.195Z,24.05
2022-10-11T12:03:19.563Z,24.88
2022-10-11T12:06:04.794Z,24.69
2022-10-11T12:08:33.211Z,25.28
2022-10-11T12:11:01.183Z,25.34
2022-10-11T12:13:35.265Z,25.75
2022-10-11T12:16:01.756Z,25.34
2022-10-11T12:18:29.374Z,24.97
2022-10-11T12:21:04.010Z,25.43
2022-10-11T12:23:30.703Z,25.92
2022-10-11T12:26:19.590Z,25.88
2022-10-11T12:28:59.576Z,25.67
2022-10-11T12:31:31.544Z,25.08
2022-10-11T12:34:01.081Z,25.41
2022-10-11T12:36:53.856Z,25.72
2022-10-11T12:39:20.330Z,25.64
2022-10-11T12:41:49.926Z,25.27
2022-10-11T12:44:19.980Z,24.69
2022-10-11T12:46:55.770Z,24.51
2022-10-11T12:49:32.159Z,24.86
2022-10-11T12:52:03.211Z,25.45
2022-10-11T12:54:37.319Z,24.65
2022-10-11T12:57:12.065Z,24.77
2022-10-11T12:59:42.698Z,25.20
2022-10-11T13:02:24.048Z,25.06
2022-10-11T13:04:50.549Z,24.85
2022-10-11T13:07:23.575Z,25.08
2022-10-11T13:09:52.866Z,25.55
2022-10-11T13:12:20.728Z,25.48
2022-10-11T13:15:00.881Z,25.25
2022-10-11T13:17:37.306Z,25.42
2022-10-11T13:20:17.421Z,24.90
2022-10-11T13:22:46.258Z,24.74
2022-10-11T13:25:16.269Z,24.32
2022-10-11T13:27:43.443Z,24.22
2022-10-11T13:30:15.754Z,24.83
2022-10-11T13:32:42.436Z,24.59
2022-10-11T13:35:17.066Z,24.18
2022-10-11T13:37:46.929Z,23.67
2022-10-11T13:40:15.156Z,23.95
2022-10-11T13:42:42.038Z,23.82
2022-10-11T13:45:11.675Z,24.40
2022-10-11T13:47:38.477Z,25.06
2022-10-11T13:50:20.058Z,24.71
2022-10-11T13:53:00.158Z,25.01
2022-10-11T13:55:32.025Z,24.31
2022-10-11T13:58:00.154Z,24.24
2022-10-11T14:00:29.171Z,23.84
2022-10-11T14:03:18.869Z,23.83
2022-10-11T14:05:53.711Z,24.07
2022-10-11T14:08:39.386Z,23.42
2022-10-11T14:11:07.018Z,23.40
2022-10-11T14:13:38.026Z,23.71
2022-10-11T14:16:04.804Z,24.31
2022-10-11T14:18:38.203Z,24.03
2022-10-11T14:21:19.891Z,23.38
2022-10-11T14:24:06.295Z,23.75
2022-10-11T14:26:37.176Z,22.97
2022-10-11T14:29:08.490Z,22.75
2022-10-11T14:31:41.512Z,22.88
2022-10-11T14:34:12.354Z,22.40
2022-10-11T14:36:38.784Z,22.33
2022-10-11T14:39:06.896Z,22.03
2022-10-11T14:41:33.325Z,21.74
2022-10-11T14:43:59.775Z,22.26
2022-10-11T14:46:27.140Z,22.51
2022-10-11T14:48:55.956Z,22.48
2022-10-11T14:51:25.218Z,22.68
2022-10-11T14:53:51.721Z,22.56
2022-10-11T14:56:21.460Z,21.99
2022-10-11T14:58:48.700Z,21.83
2022-10-11T15:01:16.690Z,21.90
2022-10-11T15:03:43.768Z,21.57
2022-10-11T15:06:16.367Z,21.37
2022-10-11T15:08:42.882Z,21.19
2022-10-11T15:11:10.458Z,20.44
2022-10-11T15:13:36.898Z,20.42
2022-10-11T15:16:03.692Z,20.30
2022-10-11T15:18:30.365Z,20.18
2022-10-11T15:20:58.114Z,20.10
2022-10-11T15:23:24.546Z,20.00
2022-10-11T15:25:51.011Z,20.16
2022-10-11T15:28:25.865Z,19.75
2022-10-11T15:30:52.631Z,19.78
2022-10-11T15:33:19.281Z,19.68
2022-10-11T15:35:45.714Z,19.76
2022-10-11T15:38:17.054Z,19.64
2022-10-11T15:40:44.090Z,19.57
2022-10-11T15:43:10.558Z,19.62
2022-10-11T15:45:36.981Z,19.30
2022-10-11T15:48:03.508Z,19.08
2022-10-11T15:50:34.551Z,18.84
2022-10-11T15:53:02.475Z,18.77
2022-10-11T15:55:29.346Z,18.70
2022-10-11T15:57:55.945Z,18.69
2022-10-11T16:00:22.583Z,18.38
2022-10-11T16:02:50.443Z,18.22
2022-10-11T16:05:18.085Z,17.82
2022-10-11T16:07:44.522Z,17.90
2022-10-11T16:10:10.983Z,17.89
2022-10-11T16:12:37.413Z,17.92
2022-10-11T16:15:04.243Z,18.02
2022-10-11T16:17:30.657Z,17.85
2022-10-11T16:19:57.588Z,17.75
2022-10-11T16:22:24.375Z,17.63
2022-10-11T16:24:50.786Z,17.73
2022-10-11T16:27:18.950Z,17.56
2022-10-11T16:29:45.575Z,17.45
2022-10-11T16:32:12.009Z,17.70
2022-10-11T16:34:38.470Z,17.78
2022-10-11T16:37:04.988Z,17.63
2022-10-11T16:39:33.142Z,17.78
2022-10-11T16:41:59.579Z,17.88
2022-10-11T16:44:27.706Z,17.97
2022-10-11T16:46:54.653Z,17.93
2022-10-11T16:49:23.449Z,17.88
2022-10-11T16:51:50.872Z,17.90
2022-10-11T16:54:20.535Z,17.88
2022-10-11T16:56:47.773Z,17.92
2022-10-11T16:59:14.237Z,17.82
2022-10-11T17:01:40.849Z,17.56
2022-10-11T17:04:07.350Z,17.39
2022-10-11T17:06:33.810Z,17.35
2022-10-11T17:09:00.414Z,17.47
2022-10-11T17:11:26.882Z,17.63
2022-10-11T17:13:53.561Z,17.62
2022-10-11T17:16:21.642Z,17.58
2022-10-11T17:18:48.972Z,17.55
2022-10-11T17:21:16.652Z,17.59
2022-10-11T17:23:43.181Z,17.74
2022-10-11T17:26:12.645Z,17.61
2022-10-11T17:28:39.260Z,17.49
2022-10-11T17:31:06.184Z,17.40
2022-10-11T17:33:32.847Z,17.31
2022-10-11T17:36:00.264Z,17.31
2022-10-11T17:38:27.479Z,17.29
2022-10-11T17:41:04.749Z,17.27
2022-10-11T17:43:31.699Z,17.51
2022-10-11T17:45:58.963Z,17.62
2022-10-11T17:48:29.051Z,17.38
2022-10-11T17:50:55.519Z,17.41
2022-10-11T17:53:22.374Z,17.33
2022-10-11T17:55:50.376Z,17.11
2022-10-11T17:58:17.805Z,17.17
2022-10-11T18:00:44.327Z,17.11
2022-10-11T18:03:11.410Z,17.19
2022-10-11T18:05:40.979Z,17.12
2022-10-11T18:08:08.276Z,16.97
2022-10-11T18:10:36.363Z,16.99
2022-10-11T18:13:06.618Z,16.90
2022-10-11T18:15:33.803Z,16.96
2022-10-11T18:18:00.400Z,16.71
2022-10-11T18:20:26.892Z,16.46
2022-10-11T18:22:54.184Z,16.52
2022-10-11T18:25:20.649Z,16.52
2022-10-11T18:27:47.095Z,16.65
2022-10-11T18:30:14.570Z,16.51
2022-10-11T18:32:41.030Z,16.46
2022-10-11T18:35:07.634Z,16.45
2022-10-11T18:37:34.129Z,16.28
2022-10-11T18:40:00.610Z,16.26
2022-10-11T18:42:27.082Z,16.30
2022-10-11T18:44:53.613Z,16.33
2022-10-11T18:47:20.070Z,16.44
2022-10-11T18:49:46.523Z,16.36
2022-10-11T18:52:13.005Z,16.33
2022-10-11T18:54:39.491Z,16.16
2022-10-11T18:57:05.972Z,16.15
2022-10-11T18:59:33.089Z,16.21
2022-10-11T19:01:59.550Z,16.23
2022-10-11T19:04:26.045Z,16.14
2022-10-11T19:06:53.273Z,16.22
2022-10-11T19:09:21.879Z,16.26
2022-10-11T19:11:52.299Z,16.20
2022-10-11T19:14:20.585Z,16.20
2022-10-11T19:16:51.099Z,16.18
2022-10-11T19:19:21.982Z,16.24
2022-10-11T19:21:48.769Z,16.26
2022-10-11T19:24:16.498Z,16.22
2022-10-11T19:26:43.030Z,16.24
2022-10-11T19:29:11.075Z,16.23
2022-10-11T19:31:41.310Z,16.26
2022-10-11T19:34:07.878Z,16.31
2022-10-11T19:36:36.764Z,16.42
2022-10-11T19:39:03.890Z,16.42
2022-10-11T19:41:30.377Z,16.33
2022-10-11T19:43:58.214Z,16.28
2022-10-11T19:46:49.880Z,16.34
2022-10-11T19:49:13.941Z,16.44
2022-10-11T19:51:40.373Z,16.27
2022-10-11T19:54:07.985Z,16.24
2022-10-11T19:56:34.954Z,16.24
2022-10-11T19:59:01.862Z,16.33
2022-10-11T20:01:29.817Z,16.15
2022-10-11T20:04:00.958Z,16.19
2022-10-11T20:06:28.239Z,16.18
2022-10-11T20:09:16.546Z,16.20
2022-10-11T20:11:41.486Z,16.21
2022-10-11T20:14:08.723Z,16.27
2022-10-11T20:16:35.170Z,16.15
2022-10-11T20:19:02.072Z,16.10
2022-10-11T20:21:29.594Z,15.98
2022-10-11T20:23:57.439Z,15.91
2022-10-11T20:26:24.770Z,15.91
2022-10-11T20:28:55.822Z,15.87
2022-10-11T20:31:25.846Z,15.92
2022-10-11T20:33:54.270Z,16.02
2022-10-11T20:36:21.850Z,16.05
2022-10-11T20:38:49.709Z,16.08
2022-10-11T20:41:20.375Z,16.08
2022-10-11T20:43:51.342Z,16.16
2022-10-11T20:46:22.525Z,16.14
2022-10-11T20:48:49.973Z,16.17
2022-10-11T20:51:16.801Z,16.14
2022-10-11T20:53:43.317Z,16.16
2022-10-11T20:56:10.626Z,16.14
2022-10-11T20:58:37.466Z,16.02
2022-10-11T21:01:15.136Z,16.17
2022-10-11T21:03:42.327Z,16.00
2022-10-11T21:06:08.973Z,15.94
2022-10-11T21:08:36.650Z,16.07
2022-10-11T21:11:03.685Z,15.94
2022-10-11T21:13:31.267Z,15.95
2022-10-11T21:16:05.314Z,15.83
2022-10-11T21:18:31.777Z,15.77
2022-10-11T21:20:58.233Z,15.98
2022-10-11T21:23:24.685Z,16.02
2022-10-11T21:25:51.128Z,16.08
2022-10-11T21:28:17.599Z,15.98
2022-10-11T21:30:44.040Z,16.12
2022-10-11T21:33:10.461Z,16.20
2022-10-11T21:35:38.671Z,16.17
2022-10-11T21:38:05.082Z,16.08
2022-10-11T21:40:31.522Z,15.89
2022-10-11T21:42:58.018Z,15.67
2022-10-11T21:45:24.439Z,15.64
2022-10-11T21:47:50.924Z,15.61
2022-10-11T21:50:17.454Z,15.41
2022-10-11T21:52:43.918Z,15.19
2022-10-11T21:55:10.613Z,15.33
2022-10-11T21:57:37.014Z,15.31
2022-10-11T22:00:06.450Z,15.28
2022-10-11T22:02:39.747Z,15.15
2022-10-11T22:05:06.253Z,15.21
2022-10-11T22:07:32.683Z,15.29
2022-10-11T22:09:59.143Z,15.20
2022-10-11T22:12:25.566Z,15.70
2022-10-11T22:14:52.022Z,15.28
2022-10-11T22:17:18.517Z,15.42
2022-10-11T22:19:44.985Z,15.51
2022-10-11T22:22:11.402Z,15.66
2022-10-11T22:24:37.853Z,15.65
2022-10-11T22:27:04.416Z,15.65
2022-10-11T22:29:34.167Z,15.66
2022-10-11T22:32:00.948Z,15.79
2022-10-11T22:34:30.185Z,15.94
2022-10-11T22:36:56.586Z,15.91
2022-10-11T22:39:23.062Z,15.77
2022-10-11T22:41:49.604Z,15.72
2022-10-11T22:44:16.061Z,15.75
2022-10-11T22:46:42.528Z,15.70
2022-10-11T22:49:08.952Z,15.77
2022-10-11T22:51:35.410Z,15.60
2022-10-11T22:54:01.858Z,15.57
2022-10-11T22:56:28.329Z,15.44
2022-10-11T22:58:54.789Z,15.50
2022-10-11T23:01:21.241Z,15.35
2022-10-11T23:03:48.578Z,15.37
2022-10-11T23:06:15.110Z,15.48
2022-10-11T23:08:41.875Z,15.98
2022-10-11T23:11:08.304Z,15.69
2022-10-11T23:13:35.223Z,15.57
2022-10-11T23:18:37.130Z,15.56
2022-10-11T23:21:03.958Z,15.64
2022-10-11T23:23:30.378Z,15.44
2022-10-11T23:26:02.829Z,15.28
2022-10-11T23:28:29.506Z,15.27
2022-10-11T23:30:55.991Z,15.27
2022-10-11T23:33:22.457Z,15.40
2022-10-11T23:35:48.930Z,15.37
2022-10-11T23:38:15.333Z,15.30
2022-10-11T23:40:42.078Z,15.40
2022-10-11T23:43:08.520Z,15.39
2022-10-11T23:45:34.942Z,15.27
2022-10-11T23:48:01.387Z,15.32
2022-10-11T23:50:27.822Z,15.32
2022-10-11T23:52:54.295Z,15.35
2022-10-11T23:55:21.281Z,15.24
2022-10-11T23:57:47.741Z,15.24
